createdAt,value
2022-10-02T00:00:20.428Z,99042.43
2022-10-02T00:05:48.280Z,99042.09
2022-10-02T00:10:51.667Z,99037.24
2022-10-02T00:15:54.747Z,99045.80
2022-10-02T00:20:58.112Z,99048.39
2022-10-02T00:26:05.326Z,99050.66
2022-10-02T00:31:10.643Z,99051.10
2022-10-02T00:36:16.005Z,99052.29
2022-10-02T00:41:18.465Z,99053.48
2022-10-02T00:46:30.654Z,99057.48
2022-10-02T00:51:35.967Z,99049.09
2022-10-02T00:56:41.291Z,99054.90
2022-10-02T01:02:04.048Z,99051.54
2022-10-02T01:07:09.612Z,99051.73
2022-10-02T01:12:12.896Z,99058.23
2022-10-02T01:17:21.402Z,99060.62
2022-10-02T01:22:26.823Z,99056.44
2022-10-02T01:27:29.495Z,99063.63
2022-10-02T01:32:32.777Z,99069.02
2022-10-02T01:37:37.418Z,99070.27
2022-10-02T01:42:40.341Z,99077.17
2022-10-02T01:47:49.467Z,99085.42
2022-10-02T01:52:54.828Z,99093.51
2022-10-02T01:58:04.027Z,99101.59
2022-10-02T02:03:17.154Z,99103.54
2022-10-02T02:08:22.529Z,99106.27
2022-10-02T02:13:27.905Z,99112.25
2022-10-02T02:18:37.763Z,99114.41
2022-10-02T02:23:42.144Z,99120.55
2022-10-02T02:28:48.592Z,99119.36
2022-10-02T02:33:57.064Z,99118.35
2022-10-02T02:39:02.050Z,99123.36
2022-10-02T02:44:07.818Z,99124.99
2022-10-02T02:49:11.765Z,99122.48
2022-10-02T02:54:17.883Z,99127.27
2022-10-02T02:59:20.843Z,99126.24
2022-10-02T03:04:23.264Z,99129.73
2022-10-02T03:09:26.845Z,99124.96
2022-10-02T03:14:39.740Z,99129.45
2022-10-02T03:19:45.507Z,99125.71
2022-10-02T03:24:52.617Z,99131.99
2022-10-02T03:30:00.333Z,99137.04
2022-10-02T03:35:04.588Z,99134.36
2022-10-02T03:40:07.802Z,99131.54
2022-10-02T03:45:10.324Z,99134.03
2022-10-02T03:50:13.310Z,99138.36
2022-10-02T03:55:17.708Z,99138.48
2022-10-02T04:00:23.308Z,99142.71
2022-10-02T04:05:30.663Z,99139.62
2022-10-02T04:10:36.887Z,99137.94
2022-10-02T04:15:50.111Z,99143.25
2022-10-02T04:20:54.356Z,99147.45
2022-10-02T04:26:01.153Z,99141.94
2022-10-02T04:31:08.679Z,99147.80
2022-10-02T04:36:14.027Z,99153.38
2022-10-02T04:41:27.300Z,99151.45
2022-10-02T04:46:32.757Z,99156.38
2022-10-02T04:51:35.150Z,99165.67
2022-10-02T04:56:40.575Z,99167.16
2022-10-02T05:01:46.204Z,99168.11
2022-10-02T05:06:58.308Z,99173.80
2022-10-02T05:12:03.706Z,99176.50
2022-10-02T05:17:06.081Z,99181.45
2022-10-02T05:22:18.146Z,99187.79
2022-10-02T05:27:20.616Z,99188.96
2022-10-02T05:32:25.918Z,99192.15
2022-10-02T05:37:39.212Z,99187.81
2022-10-02T05:42:47.287Z,99195.92
2022-10-02T05:47:50.796Z,99204.25
2022-10-02T05:52:56.134Z,99208.58
2022-10-02T05:58:03.310Z,99215.80
2022-10-02T06:03:09.312Z,99213.27
2022-10-02T06:08:15.235Z,99219.76
2022-10-02T06:13:23.561Z,99223.13
2022-10-02T06:18:28.229Z,99227.04
2022-10-02T06:23:35.608Z,99228.50
2022-10-02T06:28:40.346Z,99231.34
2022-10-02T06:33:42.821Z,99228.83
2022-10-02T06:38:48.610Z,99236.50
2022-10-02T06:44:01.668Z,99239.81
2022-10-02T06:49:04.949Z,99237.07
2022-10-02T06:54:19.392Z,99240.46
2022-10-02T06:59:24.852Z,99238.89
2022-10-02T07:04:29.188Z,99243.95
2022-10-02T07:09:31.559Z,99250.59
2022-10-02T07:14:37.196Z,99253.84
2022-10-02T07:19:40.824Z,99261.35
2022-10-02T07:24:46.332Z,99258.46
2022-10-02T07:29:56.744Z,99260.05
2022-10-02T07:35:03.041Z,99262.05
2022-10-02T07:40:10.183Z,99260.89
2022-10-02T07:45:15.533Z,99258.88
2022-10-02T07:50:27.132Z,99268.41
2022-10-02T07:55:30.002Z,99266.16
2022-10-02T08:00:36.804Z,99267.20
2022-10-02T08:05:42.501Z,99276.55
2022-10-02T08:10:47.657Z,99272.84
2022-10-02T08:15:54.103Z,99280.56
2022-10-02T08:20:56.676Z,99284.67
2022-10-02T08:26:01.072Z,99284.48
2022-10-02T08:31:08.313Z,99289.66
2022-10-02T08:36:13.883Z,99292.17
2022-10-02T08:41:31.952Z,99295.85
2022-10-02T08:46:37.560Z,99299.44
2022-10-02T08:51:44.210Z,99299.19
2022-10-02T08:56:49.528Z,99294.23
2022-10-02T09:01:59.766Z,99289.54
2022-10-02T09:07:03.669Z,99286.38
2022-10-02T09:12:08.872Z,99281.04
2022-10-02T09:17:14.417Z,99289.58
2022-10-02T09:22:20.641Z,99291.94
2022-10-02T09:27:26.061Z,99291.65
2022-10-02T09:32:43.099Z,99292.70
2022-10-02T09:37:46.472Z,99293.20
2022-10-02T09:42:50.818Z,99300.55
2022-10-02T09:47:53.276Z,99301.20
2022-10-02T09:52:58.581Z,99295.84
2022-10-02T09:58:20.910Z,99297.63
2022-10-02T10:03:26.208Z,99293.23
2022-10-02T10:08:38.121Z,99294.79
2022-10-02T10:13:55.865Z,99294.40
2022-10-02T10:19:02.360Z,99303.67
2022-10-02T10:24:06.210Z,99303.86
2022-10-02T10:29:11.114Z,99305.20
2022-10-02T10:34:14.473Z,99309.23
2022-10-02T10:39:19.799Z,99307.01
2022-10-02T10:44:23.273Z,99300.70
2022-10-02T10:49:28.646Z,99291.31
2022-10-02T10:54:44.740Z,99293.06
2022-10-02T10:59:50.417Z,99286.65
2022-10-02T11:04:53.800Z,99286.77
2022-10-02T11:09:59.186Z,99282.09
2022-10-02T11:15:12.979Z,99276.96
2022-10-02T11:20:19.035Z,99277.13
2022-10-02T11:25:21.601Z,99273.55
2022-10-02T11:30:32.392Z,99272.36
2022-10-02T11:35:44.472Z,99270.89
2022-10-02T11:40:54.263Z,99279.27
2022-10-02T11:46:00.277Z,99274.15
2022-10-02T11:51:10.672Z,99278.68
2022-10-02T11:56:22.208Z,99278.11
2022-10-02T12:01:27.539Z,99281.98
2022-10-02T12:06:29.902Z,99280.48
2022-10-02T12:11:35.613Z,99280.67
2022-10-02T12:16:41.180Z,99286.29
2022-10-02T12:21:49.531Z,99281.73
2022-10-02T12:26:57.825Z,99283.94
2022-10-02T12:32:10.369Z,99288.88
2022-10-02T12:37:13.993Z,99302.16
2022-10-02T12:42:17.457Z,99296.23
2022-10-02T12:47:22.790Z,99299.36
2022-10-02T12:52:42.073Z,99291.86
2022-10-02T12:57:53.302Z,99278.68
2022-10-02T13:03:01.774Z,99274.14
2022-10-02T13:08:15.904Z,99271.14
2022-10-02T13:13:28.941Z,99273.79
2022-10-02T13:18:33.738Z,99273.92
2022-10-02T13:23:41.585Z,99263.02
2022-10-02T13:28:47.321Z,99263.65
2022-10-02T13:34:40.039Z,99262.56
2022-10-02T13:39:45.343Z,99261.23
2022-10-02T13:44:48.630Z,99265.73
2022-10-02T13:49:53.974Z,99268.08
2022-10-02T13:55:02.366Z,99265.55
2022-10-02T14:00:07.746Z,99280.98
2022-10-02T14:05:13.473Z,99286.27
2022-10-02T14:10:22.719Z,99278.08
2022-10-02T14:15:28.036Z,99270.18
2022-10-02T14:20:33.367Z,99258.16
2022-10-02T14:25:38.816Z,99255.14
2022-10-02T14:30:42.231Z,99255.55
2022-10-02T14:35:51.670Z,99247.67
2022-10-02T14:40:57.928Z,99257.45
2022-10-02T14:46:20.747Z,99259.98
2022-10-02T14:51:24.164Z,99264.70
2022-10-02T14:56:35.040Z,99262.66
2022-10-02T15:01:43.748Z,99262.69
2022-10-02T15:06:49.144Z,99270.25
2022-10-02T15:12:01.226Z,99271.31
2022-10-02T15:17:12.528Z,99272.55
2022-10-02T15:22:20.156Z,99268.54
2022-10-02T15:27:25.957Z,99265.66
2022-10-02T15:32:31.286Z,99260.38
2022-10-02T15:37:42.398Z,99263.38
2022-10-02T15:42:58.674Z,99259.53
2022-10-02T15:48:05.406Z,99264.29
2022-10-02T15:53:10.746Z,99260.94
2022-10-02T15:58:13.073Z,99259.34
2022-10-02T16:03:26.125Z,99256.50
2022-10-02T16:08:31.449Z,99255.36
2022-10-02T16:13:47.204Z,99256.96
2022-10-02T16:18:53.488Z,99254.71
2022-10-02T16:23:58.792Z,99256.19
2022-10-02T16:29:04.290Z,99261.64
2022-10-02T16:34:09.601Z,99268.70
2022-10-02T16:39:11.967Z,99266.48
2022-10-02T16:50:56.450Z,99266.70
2022-10-02T16:56:06.734Z,99259.27
2022-10-02T17:01:13.795Z,99262.31
2022-10-02T17:06:26.639Z,99266.33
2022-10-02T17:11:32.543Z,99268.36
2022-10-02T17:16:39.872Z,99277.50
2022-10-02T17:21:45.963Z,99276.17
2022-10-02T17:26:51.354Z,99278.63
2022-10-02T17:31:54.895Z,99278.13
2022-10-02T17:37:02.400Z,99276.38
2022-10-02T17:42:06.896Z,99284.90
2022-10-02T17:47:09.948Z,99283.16
2022-10-02T17:52:15.259Z,99280.75
2022-10-02T17:57:17.648Z,99282.98
2022-10-02T18:02:23.047Z,99285.70
2022-10-02T18:07:28.520Z,99281.96
2022-10-02T18:12:31.148Z,99280.11
2022-10-02T18:17:39.884Z,99278.96
2022-10-02T18:22:43.068Z,99282.52
2022-10-02T18:27:45.535Z,99276.55
2022-10-02T18:32:48.171Z,99272.92
2022-10-02T18:37:54.703Z,99279.33
2022-10-02T18:43:02.216Z,99284.02
2022-10-02T18:48:19.804Z,99280.20
2022-10-02T18:53:22.936Z,99279.74
2022-10-02T18:58:38.442Z,99281.45
2022-10-02T19:03:43.758Z,99279.05
2022-10-02T19:08:50.826Z,99283.85
2022-10-02T19:13:53.622Z,99281.98
2022-10-02T19:18:59.552Z,99280.08
2022-10-02T19:24:02.926Z,99282.33
2022-10-02T19:29:08.375Z,99284.52
2022-10-02T19:34:14.391Z,99283.62
2022-10-02T19:39:19.271Z,99283.57
2022-10-02T19:44:28.224Z,99278.58
2022-10-02T19:49:34.106Z,99268.98
2022-10-02T19:54:36.993Z,99265.08
2022-10-02T19:59:42.927Z,99263.15
2022-10-02T20:04:45.964Z,99261.92
2022-10-02T20:09:52.223Z,99259.85
2022-10-02T20:14:57.520Z,99257.19
2022-10-02T20:20:02.706Z,99256.94
2022-10-02T20:25:09.895Z,99252.98
2022-10-02T20:30:17.007Z,99248.77
2022-10-02T20:35:24.450Z,99245.73
2022-10-02T20:40:30.182Z,99245.02
2022-10-02T20:45:44.008Z,99247.98
2022-10-02T20:50:49.332Z,99247.23
2022-10-02T20:55:58.922Z,99250.66
2022-10-02T21:01:04.306Z,99248.73
2022-10-02T21:06:08.046Z,99242.30
2022-10-02T21:11:13.345Z,99238.09
2022-10-02T21:16:15.887Z,99235.31
2022-10-02T21:21:18.959Z,99238.83
2022-10-02T21:26:32.916Z,99234.93
2022-10-02T21:31:35.257Z,99224.39
2022-10-02T21:36:41.738Z,99224.73
2022-10-02T21:41:48.507Z,99223.75
2022-10-02T21:47:04.229Z,99218.27
2022-10-02T21:59:05.395Z,99216.38
2022-10-02T22:04:10.712Z,99219.29
2022-10-02T22:09:31.692Z,99214.90
2022-10-02T22:14:39.580Z,99216.00
2022-10-02T22:19:44.995Z,99212.60
2022-10-02T22:24:48.345Z,99209.45
2022-10-02T22:29:53.616Z,99214.55
2022-10-02T22:35:06.868Z,99210.73
2022-10-02T22:40:14.829Z,99208.07
2022-10-02T22:45:22.948Z,99214.96
2022-10-02T22:50:29.266Z,99206.40
2022-10-02T22:55:34.537Z,99211.10
2022-10-02T23:00:50.068Z,99210.88
2022-10-02T23:05:55.900Z,99210.11
2022-10-02T23:11:02.111Z,99209.13
2022-10-02T23:16:10.148Z,99198.21
2022-10-02T23:21:12.679Z,99192.85
2022-10-02T23:26:20.297Z,99184.36
2022-10-02T23:31:30.361Z,99185.23
2022-10-02T23:36:36.913Z,99190.66
2022-10-02T23:41:45.860Z,99191.67
2022-10-02T23:46:50.468Z,99188.48
2022-10-02T23:52:02.992Z,99191.18
2022-10-02T23:57:08.332Z,99187.87
